Nearby METAR Reports

 

KPBI - West Palm Beach, Florida, USA
Distance from station: NNE 9mi, 14km
Updated: Thu, 17-Jan-2019 3:53am EST
Few Clouds
Few Clouds
 Wind from NW
Wind: NW 5 mph , 7 km/h
Temperature: 54°F , 12°C
Dew Point: 52°F , 11°C
Humidity: 94%
Barometer: 30.18 inHg , 1022 hPa
Clouds: Few Clouds
Visibility: 10 miles , 16 km
Cloud details: Few Clouds 25000 ft
2019/01/17 08:53 KPBI 170853Z 32004KT 10SM FEW250 12/11 A3018 RMK AO2 SLP220 T01170111 56003
KBCT - Boca Raton, Florida, USA
Distance from station: SSE 13mi, 21km
Updated: Wed, 16-Jan-2019 10:50pm EST
NOT Current
Clear
Clear
 Wind from N
Wind: N 8 mph , 13 km/h
Temperature: 61°F , 16°C
Dew Point: 54°F , 12°C
Humidity: 77%
Barometer: 30.22 inHg , 1023.4 hPa
Clouds: Clear
Visibility: 10 miles , 16 km
2019/01/17 03:50 KBCT 170350Z 36007KT 10SM CLR 16/12 A3022 RMK LAST
 
KPMP - Pompano Beach, Florida, USA
Distance from station: S 22mi, 36km
Updated: Thu, 17-Jan-2019 3:53am EST
Clear
Clear
 Wind from NW
Wind: NW 7 mph , 11 km/h
Temperature: 55°F , 13°C
Dew Point: 52°F , 11°C
Humidity: 88%
Barometer: 30.17 inHg , 1021.7 hPa
Clouds: Clear
Visibility: 10 miles , 16 km
2019/01/17 08:53 KPMP 170853Z AUTO 32006KT 10SM CLR 13/11 A3017 RMK AO2 SLP217 T01280111 56005
KFXE - Ft Lauderd/Exec, Florida, USA
Distance from station: S 25mi, 41km
Updated: Thu, 17-Jan-2019 3:53am EST
Clear
Clear
 Wind from NNW
Wind: NNW 5 mph , 7 km/h
Temperature: 55°F , 13°C
Dew Point: 54°F , 12°C
Humidity: 94%
Barometer: 30.17 inHg , 1021.7 hPa
Clouds: Clear
Visibility: 10 miles , 16 km
2019/01/17 08:53 KFXE 170853Z 33004KT 10SM CLR 13/12 A3017 RMK AO2 SLP219 T01280122 56006
 
KFLL - Ft Lauderd/Holly, Florida, USA
Distance from station: S 35mi, 56km
Updated: Thu, 17-Jan-2019 3:53am EST
Clear
Clear
 Wind from NNW
Wind: NNW 8 mph , 13 km/h
Temperature: 55°F , 13°C
Dew Point: 54°F , 12°C
Humidity: 94%
Barometer: 30.17 inHg , 1021.7 hPa
Clouds: Clear
Visibility: 10 miles , 16 km
2019/01/17 08:53 KFLL 170853Z AUTO 34007KT 10SM CLR 13/12 A3017 RMK AO2 SLP215 T01330122 56006
KHWO - Hollywood, Florida, USA
Distance from station: S 39mi, 64km
Updated: Thu, 17-Jan-2019 3:53am EST
Clear
Clear
 Wind from NNW
Wind: NNW 5 mph , 7 km/h
Temperature: 54°F , 12°C
Dew Point: 52°F , 11°C
Humidity: 94%
Barometer: 30.19 inHg , 1022.4 hPa
Clouds: Clear
Visibility: 10 miles , 16 km
2019/01/17 08:53 KHWO 170853Z AUTO 33004KT 10SM CLR 12/11 A3019 RMK AO2 SLP223 T01220106 56004
 
KSUA - Stuart/Witham, Florida, USA
Distance from station: N 43mi, 69km
Updated: Thu, 17-Jan-2019 4:15am EST
Partly cloudy
Partly cloudy
 Wind from NW
Wind: NW 5 mph , 7 km/h
Temperature: 52°F , 11°C
Dew Point: 46°F , 8°C
Humidity: 82%
Barometer: 30.18 inHg , 1022 hPa
Clouds: Partly cloudy
Visibility: 10 miles , 16 km
Cloud details: Partly cloudy 5000 ft
2019/01/17 09:15 KSUA 170915Z AUTO 31004KT 10SM SCT050 11/08 A3018 RMK AO2
KOPF - Miami/Opa Locka, Florida, USA
Distance from station: S 46mi, 73km
Updated: Thu, 17-Jan-2019 3:53am EST
Clear
Clear
 Wind from N
Wind: N 7 mph , 11 km/h
Temperature: 55°F , 13°C
Dew Point: 52°F , 11°C
Humidity: 88%
Barometer: 30.18 inHg , 1022 hPa
Clouds: Clear
Visibility: 10 miles , 16 km
2019/01/17 08:53 KOPF 170853Z AUTO 35006KT 10SM CLR 13/11 A3018 RMK AO2 SLP221 T01330106 56005
 
KMIA - Miami, Florida, USA
Distance from station: S 54mi, 86km
Updated: Thu, 17-Jan-2019 3:53am EST
Clear
Clear
 Wind from NNW
Wind: NNW 6 mph , 9 km/h
Temperature: 57°F , 14°C
Dew Point: 54°F , 12°C
Humidity: 88%
Barometer: 30.18 inHg , 1022 hPa
Clouds: Clear
Visibility: 10 miles , 16 km
2019/01/17 08:53 KMIA 170853Z 34005KT 10SM CLR 14/12 A3018 RMK AO2 SLP218 T01390122 56005
KOBE - Okeechobee Cty, Florida, USA
Distance from station: NW 64mi, 104km
Updated: Thu, 17-Jan-2019 4:15am EST
Clear
Clear
 Wind from calm
Wind: Calm
Temperature: 43°F , 6°C
Dew Point: 41°F , 5°C
Humidity: 93%
Barometer: 30.20 inHg , 1022.7 hPa
Clouds: Clear
Visibility: 7 miles , 11 km
2019/01/17 09:15 KOBE 170915Z AUTO 00000KT 7SM CLR 06/05 A3020 RMK AO2
 
KFPR - Fort Pierce, Florida, USA
Distance from station: NNW 66mi, 106km
Updated: Thu, 17-Jan-2019 3:53am EST
Clear
Clear
 Wind from W
Wind: W 5 mph , 7 km/h
Temperature: 46°F , 8°C
Wind Chill: 44°F , 7°C
Dew Point: 45°F , 7°C
Humidity: 93%
Barometer: 30.18 inHg , 1022 hPa
Clouds: Clear
Visibility: 10 miles , 16 km
2019/01/17 08:53 KFPR 170853Z AUTO 27004KT 10SM CLR 08/07 A3018 RMK AO2 SLP219 T00830067 58009
KTMB - Miami/Tamiami, Florida, USA
Distance from station: SSW 66mi, 106km
Updated: Thu, 17-Jan-2019 3:53am EST
Clear
Clear
 Wind from N
Wind: N 5 mph , 7 km/h
Temperature: 55°F , 13°C
Dew Point: 52°F , 11°C
Humidity: 88%
Barometer: 30.18 inHg , 1022 hPa
Clouds: Clear
Visibility: 10 miles , 16 km
2019/01/17 08:53 KTMB 170853Z AUTO 36004KT 10SM CLR 13/11 A3018 RMK AO2 SLP218 T01280106 55003
 
KVRB - Vero Beach, Florida, USA
Distance from station: NNW 76mi, 123km
Updated: Thu, 17-Jan-2019 3:53am EST
Clear
Clear
 Wind from WNW
Wind: WNW 5 mph , 7 km/h
Temperature: 48°F , 9°C
Wind Chill: 46°F , 8°C
Dew Point: 45°F , 7°C
Humidity: 87%
Barometer: 30.19 inHg , 1022.4 hPa
Clouds: Clear
Visibility: 10 miles , 16 km
2019/01/17 08:53 KVRB 170853Z AUTO 30004KT 10SM CLR 09/07 A3019 RMK AO2 SLP221 T00890072 58007
KHST - Homestead Afb, Florida, USA
Distance from station: S 77mi, 124km
Updated: Thu, 17-Jan-2019 3:56am EST
Clear
Clear
 Wind from NW
Wind: NW 7 mph , 11 km/h
Temperature: 55°F , 13°C
Dew Point: 52°F , 11°C
Humidity: 88%
Barometer: 30.16 inHg , 1021.3 hPa
Clouds: Clear
Visibility: 10 miles , 16 km
2019/01/17 08:56 KHST 170856Z AUTO 32006KT 10SM CLR 13/11 A3016 RMK AO2 SLPNO T01280107 55003 FZRANO $
 
KIMM - Immokalee, Florida, USA
Distance from station: W 77mi, 124km
Updated: Thu, 17-Jan-2019 4:15am EST
Mist, Mostly cloudy
Mist, Mostly cloudy
 Wind from N
Wind: N 5 mph , 7 km/h
Temperature: 41°F , 5°C
Wind Chill: 38°F , 3°C
Dew Point: 39°F , 4°C
Humidity: 93%
Barometer: 30.20 inHg , 1022.7 hPa
Summary: Mist
Clouds: Mostly cloudy
Visibility: 6 miles , 10 km
Cloud details: Mostly cloudy 2400 ft
2019/01/17 09:15 KIMM 170915Z AUTO 35004KT 6SM BR BKN024 05/04 A3020 RMK A01
MYGF - Freeport Intl A, Bahamas
Distance from station: E 90mi, 145km
Updated: Wed, 16-Jan-2019 7:00pm EST
NOT Current
Partly cloudy
Partly cloudy
 Wind from NE
Wind: NE 7 mph , 11 km/h
Temperature: 66°F , 19°C
Dew Point: 57°F , 14°C
Humidity: 73%
Barometer: 30.15 inHg , 1021 hPa
Clouds: Partly cloudy
Visibility: 6 miles , 10 km
Cloud details: Few Clouds 2000 ft
Partly cloudy 12000 ft
2019/01/17 00:00 MYGF 170000Z 04006KT 9999 FEW020 SCT120 19/14 A3015
 
KSEF - Sebring, Florida, USA
Distance from station: NW 95mi, 153km
Updated: Thu, 17-Jan-2019 3:50am EST
Mist, Clear
Mist, Clear
 Wind from NNW
Wind: NNW 3 mph , 6 km/h
Temperature: 45°F , 7°C
Dew Point: 43°F , 6°C
Humidity: 93%
Barometer: 30.21 inHg , 1023 hPa
Summary: Mist
Clouds: Clear
Visibility: 5 miles , 8 km
2019/01/17 08:50 KSEF 170850Z AUTO 33003KT 5SM BR CLR 07/06 A3021 RMK AO2 T00660055
KRSW - Fort Myers, Florida, USA
Distance from station: W 98mi, 158km
Updated: Thu, 17-Jan-2019 3:53am EST
Clear
Clear
 Wind from NNE
Wind: NNE 5 mph , 7 km/h
Temperature: 46°F , 8°C
Wind Chill: 44°F , 7°C
Dew Point: 41°F , 5°C
Humidity: 82%
Barometer: 30.21 inHg , 1023 hPa
Clouds: Clear
Visibility: 10 miles , 16 km
2019/01/17 08:53 KRSW 170853Z AUTO 03004KT 10SM CLR 08/05 A3021 RMK AO2 SLP226 T00780050 58005